Cadiz, KY

6:19 AM CDT on August 30, 2015 (GMT -0500)
Linton Road | | Change Station
CLOSE
Current Station
Personal Weather Station
Location: Cadiz, KY
Elevation: 463 ft
Nearby Weather Stations

Elev 463 ft 36.78 °N, 87.93 °W | Updated 10 seconds ago

Mostly Cloudy
Mostly Cloudy
70.9 °F
Feels Like 70.9 °F
N
0.0
Wind Variable Wind from WSW
Gusts 0.0 mph

Today
High -- | Low -- °F
--% Chance of Precip.
Yesterday
High -- | Low -- °F
Precip. -- in
6:20 AM 7:22 PM
Full, 99% visible
Pressure 30.08 in
Visibility 10.0 miles
Clouds Clear
Dew Point 70 °F
Humidity 97%
Rainfall 0.00 in
Snow Depth Not available.
UV 0.0 out of 12
Pollen 8.00 out of 12
Air Quality Not available.
Flu Activity Not available.
METAR KHOP 301058Z AUTO 18003KT 10SM CLR 20/19 A3009 RMK AO2 SLP186 T02040189
Pressure 30.08 in
Visibility 10.0 miles
Clouds Clear
Dew Point 70 °F
Humidity 97%
Rainfall 0.00 in
Snow Depth Not available.
UV 0.0 out of 12
Pollen 8.00 out of 12
Air Quality Not available.
Flu Activity Not available.
METAR KHOP 301058Z AUTO 18003KT 10SM CLR 20/19 A3009 RMK AO2 SLP186 T02040189

10-Day Weather Forecast

×

Almanac

Astronomy

Aug. 30, 2015 Rise Set
Actual Time
Civil Twilight
Nautical Twilight
Astronomical Twilight
Moon
Length of Visible Light
Length of Day
Tomorrow will be .
, % of the Moon is Illuminated

Today's Extremes

State Highs State Lows

Community

WunderPhotos

Upload Photos

1,850,925 photos uploaded!

WunderBlogs® & News

Nearby

Air Quality

  Air Quality AQ Index Pollutant
Not available.

Snow Depth

Station Depth Elevation

Earthquake Activity

City Distance Mag. Time & Date
Minimum magnitude displayed is 2.5.

Coastal Water Temperatures

Place Temperature

Stations

Nearby Weather Stations

Station Location Temp. Windchill Dew Point Humidity Wind Precip. Elev Updated Type